Time;durP1;ratioP1;P1;durP2;ratioP2;P2;SDS_P1;SDS_P2;PMS_P1;PMS_P2;Temp;Humidity;BMP_temperature;BMP_pressure;BME280_temperature;BME280_humidity;BME280_pressure;Samples;Min_cycle;Max_cycle;Signal;HPM_P1;HPM_P2
2021/12/09 00:01:07;;;;;;;;;;;;;;;1.34;100.00;100151.16;5039517;28;19909;-43
2021/12/09 00:03:39;;;;;;;;;;;;;;;1.30;100.00;100155.78;5037653;28;20062;-41
2021/12/09 00:06:04;;;;;;;;;;;;;;;1.30;100.00;100160.22;5038466;28;20018;-43
2021/12/09 00:08:30;;;;;;;;;;;;;;;1.29;100.00;100156.75;5039226;28;19971;-43
2021/12/09 00:10:56;;;;;;;;;;;;;;;1.29;100.00;100153.28;5039693;28;19900;-42
2021/12/09 00:13:22;;;;;;;;;;;;;;;1.24;100.00;100151.03;5038718;28;19917;-44
2021/12/09 00:15:48;;;;;;;;;;;;;;;1.23;100.00;100156.41;5039446;28;19943;-46
2021/12/09 00:18:13;;;;;;;;;;;;;;;1.21;100.00;100146.00;5036780;28;19951;-46
2021/12/09 00:20:38;;;;;;;;;;;;;;;1.19;100.00;100157.56;5037026;28;19965;-42
2021/12/09 00:23:04;;;;;;;;;;;;;;;1.17;100.00;100162.13;5036755;28;20296;-44
2021/12/09 00:25:29;;;;;;;;;;;;;;;1.15;100.00;100156.13;5037974;28;19924;-43
2021/12/09 00:27:54;;;;;;;;;;;;;;;1.13;100.00;100163.31;5057197;28;20100;-43
2021/12/09 00:30:20;;;;;;;;;;;;;;;1.10;100.00;100153.84;5037799;28;20065;-43
2021/12/09 00:32:46;;;;;;;;;;;;;;;1.10;100.00;100161.75;5055690;28;19912;-43
2021/12/09 00:35:14;;;;;;;;;;;;;;;1.07;100.00;100157.56;5057503;28;20433;-44
2021/12/09 00:37:51;;;;;;;;;;;;;;;1.07;100.00;100157.56;5058428;28;19913;-43
2021/12/09 00:40:17;;;;;;;;;;;;;;;1.08;100.00;100155.78;5057832;28;19916;-43
2021/12/09 00:42:42;;;;;;;;;;;;;;;1.11;100.00;100159.00;5057959;28;20473;-45
2021/12/09 00:45:07;;;;;;;;;;;;;;;1.14;100.00;100152.69;5057272;28;19915;-44
2021/12/09 00:47:32;;;;;;;;;;;;;;;1.14;100.00;100152.69;5057397;28;19915;-43
2021/12/09 00:49:58;;;;;;;;;;;;;;;1.18;100.00;100161.16;5039077;28;20056;-43
2021/12/09 00:52:27;;;;;;;;;;;;;;;1.19;100.00;100155.78;5058325;28;19920;-44
2021/12/09 00:54:54;;;;;;;;;;;;;;;1.22;100.00;100158.19;5058974;28;19908;-43
2021/12/09 00:57:19;;;;;;;;;;;;;;;1.28;100.00;100162.13;5056541;28;20015;-44
2021/12/09 00:59:45;;;;;;;;;;;;;;;1.36;100.00;100159.75;5049612;28;20070;-43
2021/12/09 01:02:11;;;;;;;;;;;;;;;1.42;100.00;100161.91;5038966;28;20007;-44
2021/12/09 01:04:37;;;;;;;;;;;;;;;1.45;100.00;100169.56;5036946;28;19909;-43
2021/12/09 01:07:03;;;;;;;;;;;;;;;1.48;100.00;100171.97;5038094;28;20388;-45
2021/12/09 01:09:28;;;;;;;;;;;;;;;1.48;100.00;100165.88;5037712;28;20074;-44
2021/12/09 01:11:53;;;;;;;;;;;;;;;1.46;100.00;100162.50;5037351;28;20009;-45
2021/12/09 01:14:19;;;;;;;;;;;;;;;1.40;100.00;100161.19;5037771;28;20106;-43
2021/12/09 01:16:44;;;;;;;;;;;;;;;1.33;100.00;100165.25;5038345;28;19912;-44
2021/12/09 01:19:09;;;;;;;;;;;;;;;1.31;100.00;100167.16;5036534;28;20250;-45
2021/12/09 01:21:34;;;;;;;;;;;;;;;1.29;100.00;100174.31;5037339;28;19974;-46
2021/12/09 01:23:59;;;;;;;;;;;;;;;1.24;100.00;100174.69;5036949;28;19935;-43
2021/12/09 01:26:26;;;;;;;;;;;;;;;1.20;100.00;100175.03;5044719;28;20304;-45
2021/12/09 01:28:57;;;;;;;;;;;;;;;1.17;100.00;100170.00;5058167;28;19989;-43
2021/12/09 01:31:27;;;;;;;;;;;;;;;1.16;100.00;100181.50;5057324;28;19955;-43
2021/12/09 01:33:53;;;;;;;;;;;;;;;1.11;100.00;100184.47;5057786;28;19908;-48
2021/12/09 01:36:19;;;;;;;;;;;;;;;1.09;100.00;100184.59;5055230;28;19912;-45
2021/12/09 01:38:45;;;;;;;;;;;;;;;1.07;100.00;100175.97;5058040;28;19924;-42
2021/12/09 01:41:10;;;;;;;;;;;;;;;1.11;100.00;100182.66;5057858;28;19919;-45
2021/12/09 01:43:35;;;;;;;;;;;;;;;1.09;100.00;100179.31;5056646;28;20015;-43
2021/12/09 01:46:07;;;;;;;;;;;;;;;1.05;100.00;100185.78;5057428;28;20047;-45
2021/12/09 01:48:33;;;;;;;;;;;;;;;1.00;100.00;100179.19;5055458;28;19908;-43
2021/12/09 01:50:59;;;;;;;;;;;;;;;0.98;100.00;100173.19;5056418;28;20113;-45
2021/12/09 01:53:24;;;;;;;;;;;;;;;0.96;100.00;100177.75;5038736;28;19912;-46
2021/12/09 01:55:49;;;;;;;;;;;;;;;0.91;100.00;100173.66;5056495;28;20251;-46
2021/12/09 01:58:14;;;;;;;;;;;;;;;0.89;100.00;100172.09;5056892;28;20003;-42
2021/12/09 02:00:39;;;;;;;;;;;;;;;0.87;100.00;100179.28;5039952;28;20106;-45
2021/12/09 02:03:05;;;;;;;;;;;;;;;0.84;100.00;100182.97;5035126;28;19912;-43
2021/12/09 02:05:31;;;;;;;;;;;;;;;0.83;100.00;100175.19;5034359;28;19916;-43
2021/12/09 02:07:56;;;;;;;;;;;;;;;0.82;100.00;100181.41;5037171;28;19976;-45
2021/12/09 02:10:22;;;;;;;;;;;;;;;0.80;100.00;100165.75;5036433;28;20022;-44
2021/12/09 02:12:48;;;;;;;;;;;;;;;0.78;100.00;100169.44;5036711;28;19911;-43
2021/12/09 02:15:13;;;;;;;;;;;;;;;0.75;100.00;100162.63;5036013;28;20420;-41
2021/12/09 02:17:38;;;;;;;;;;;;;;;0.74;100.00;100166.19;5034798;28;19912;-42
2021/12/09 02:20:05;;;;;;;;;;;;;;;0.71;100.00;100162.03;5035696;28;20004;-43
2021/12/09 02:22:31;;;;;;;;;;;;;;;0.72;100.00;100163.69;5036284;28;19935;-45
2021/12/09 02:24:56;;;;;;;;;;;;;;;0.71;100.00;100159.41;5036472;28;20373;-41
2021/12/09 02:27:23;;;;;;;;;;;;;;;0.68;100.00;100153.50;5051370;28;20009;-42
2021/12/09 02:29:49;;;;;;;;;;;;;;;0.69;100.00;100163.09;5055639;28;19922;-45
2021/12/09 02:32:14;;;;;;;;;;;;;;;0.65;100.00;100166.91;5055437;28;19912;-43
2021/12/09 02:34:40;;;;;;;;;;;;;;;0.62;100.00;100157.44;5055947;28;19926;-44
2021/12/09 02:37:05;;;;;;;;;;;;;;;0.63;100.00;100164.38;5055765;28;20077;-43
2021/12/09 02:39:30;;;;;;;;;;;;;;;0.62;100.00;100165.31;5056323;28;20082;-42
2021/12/09 02:41:56;;;;;;;;;;;;;;;0.63;100.00;100172.28;5056189;28;19916;-44
2021/12/09 02:44:22;;;;;;;;;;;;;;;0.64;100.00;100170.47;5054725;28;19923;-43
2021/12/09 02:46:49;;;;;;;;;;;;;;;0.65;100.00;100159.84;5056105;28;20022;-41
2021/12/09 02:49:16;;;;;;;;;;;;;;;0.65;100.00;100162.47;5055673;28;19912;-45
2021/12/09 02:51:41;;;;;;;;;;;;;;;0.62;100.00;100169.75;5037541;28;19915;-41
2021/12/09 02:54:08;;;;;;;;;;;;;;;0.61;100.00;100166.28;5055840;28;20362;-45
2021/12/09 02:56:34;;;;;;;;;;;;;;;0.59;100.00;100168.19;5055052;28;20428;-43
2021/12/09 02:58:59;;;;;;;;;;;;;;;0.60;100.00;100180.38;5034545;28;20014;-41
2021/12/09 03:01:27;;;;;;;;;;;;;;;0.61;100.00;100187.31;5036186;28;19913;-41
2021/12/09 03:03:58;;;;;;;;;;;;;;;0.60;100.00;100183.00;5035453;28;19909;-44
2021/12/09 03:06:36;;;;;;;;;;;;;;;0.60;100.00;100187.44;5034729;28;20061;-44
2021/12/09 03:09:07;;;;;;;;;;;;;;;0.58;100.00;100186.69;5035083;28;20196;-42
2021/12/09 03:11:33;;;;;;;;;;;;;;;0.54;100.00;100181.69;5035292;28;20406;-46
2021/12/09 03:13:59;;;;;;;;;;;;;;;0.54;100.00;100188.69;5035824;28;19913;-41
2021/12/09 03:16:24;;;;;;;;;;;;;;;0.53;100.00;100195.75;5033720;28;20007;-42
2021/12/09 03:18:51;;;;;;;;;;;;;;;0.53;100.00;100198.38;5035773;28;20241;-44
2021/12/09 03:21:18;;;;;;;;;;;;;;;0.49;100.00;100202.19;5032912;28;19913;-43
2021/12/09 03:23:43;;;;;;;;;;;;;;;0.47;100.00;100203.25;5035447;28;20011;-44
2021/12/09 03:26:09;;;;;;;;;;;;;;;0.47;100.00;100198.81;5040890;28;20077;-43
2021/12/09 03:28:34;;;;;;;;;;;;;;;0.47;100.00;100205.88;5055049;28;19913;-42
2021/12/09 03:30:59;;;;;;;;;;;;;;;0.47;100.00;100213.75;5055752;28;19931;-41
2021/12/09 03:33:24;;;;;;;;;;;;;;;0.48;100.00;100221.53;5054932;28;20502;-42
2021/12/09 03:35:56;;;;;;;;;;;;;;;0.46;100.00;100212.06;5054413;28;20361;-42
2021/12/09 03:38:22;;;;;;;;;;;;;;;0.42;100.00;100213.25;5055396;28;19916;-44
2021/12/09 03:40:47;;;;;;;;;;;;;;;0.42;100.00;100205.38;5055764;28;19908;-42
2021/12/09 03:43:12;;;;;;;;;;;;;;;0.43;100.00;100228.06;5055242;28;20203;-44
2021/12/09 03:45:37;;;;;;;;;;;;;;;0.43;100.00;100214.94;5055039;28;19915;-41
2021/12/09 03:48:03;;;;;;;;;;;;;;;0.42;100.00;100221.13;5035571;28;19927;-44
2021/12/09 03:50:28;;;;;;;;;;;;;;;0.44;100.00;100220.09;5054886;28;19947;-42
2021/12/09 03:52:53;;;;;;;;;;;;;;;0.44;100.00;100216.59;5055145;28;20253;-40
2021/12/09 03:55:18;;;;;;;;;;;;;;;0.44;100.00;100222.72;5040823;28;19913;-42
2021/12/09 03:57:44;;;;;;;;;;;;;;;0.44;100.00;100220.09;5035687;28;19928;-44
2021/12/09 04:00:10;;;;;;;;;;;;;;;0.43;100.00;100217.56;5034860;28;19916;-43
2021/12/09 04:02:35;;;;;;;;;;;;;;;0.46;100.00;100225.19;5033820;28;20395;-41
2021/12/09 04:05:00;;;;;;;;;;;;;;;0.42;100.00;100221.97;5034232;28;20561;-42
2021/12/09 04:07:26;;;;;;;;;;;;;;;0.39;100.00;100214.31;5035475;28;19974;-45
2021/12/09 04:09:51;;;;;;;;;;;;;;;0.35;100.00;100216.31;5035677;28;20007;-42
2021/12/09 04:12:16;;;;;;;;;;;;;;;0.35;100.00;100212.84;5034365;28;19974;-42
2021/12/09 04:14:41;;;;;;;;;;;;;;;0.34;100.00;100213.78;5035094;28;20094;-40
2021/12/09 04:17:07;;;;;;;;;;;;;;;0.32;100.00;100211.31;5033461;28;19908;-41
2021/12/09 04:19:33;;;;;;;;;;;;;;;0.27;100.00;100202.06;5035296;28;19913;-41
2021/12/09 04:21:58;;;;;;;;;;;;;;;0.30;100.00;100207.09;5036851;28;19909;-41
2021/12/09 04:24:23;;;;;;;;;;;;;;;0.33;100.00;100214.75;5039022;28;20327;-42
2021/12/09 04:26:50;;;;;;;;;;;;;;;0.31;100.00;100212.25;5049428;28;19918;-41
2021/12/09 04:29:16;;;;;;;;;;;;;;;0.29;100.00;100218.53;5057250;28;19915;-41
2021/12/09 04:31:42;;;;;;;;;;;;;;;0.28;100.00;100228.22;5058428;28;19908;-43
2021/12/09 04:34:07;;;;;;;;;;;;;;;0.28;100.00;100220.34;5058637;28;19919;-42
2021/12/09 04:36:33;;;;;;;;;;;;;;;0.30;100.00;100222.84;5057740;28;19912;-42
2021/12/09 04:38:58;;;;;;;;;;;;;;;0.29;100.00;100229.03;5040178;28;20019;-42
2021/12/09 04:41:23;;;;;;;;;;;;;;;0.24;100.00;100221.50;5039904;28;19915;-42
2021/12/09 04:43:49;;;;;;;;;;;;;;;0.23;100.00;100232.13;5057775;28;19916;-43
2021/12/09 04:46:14;;;;;;;;;;;;;;;0.21;100.00;100228.78;5040068;28;19912;-45
2021/12/09 04:48:40;;;;;;;;;;;;;;;0.18;100.00;100228.03;5057675;28;20011;-42
2021/12/09 04:51:06;;;;;;;;;;;;;;;0.18;100.00;100229.81;5057472;28;20010;-43
2021/12/09 04:53:31;;;;;;;;;;;;;;;0.16;100.00;100236.97;5058089;28;20466;-42
2021/12/09 04:55:56;;;;;;;;;;;;;;;0.14;100.00;100233.63;5057786;28;20071;-41
2021/12/09 04:58:23;;;;;;;;;;;;;;;0.12;100.00;100230.25;5056879;28;19916;-42
2021/12/09 05:00:49;;;;;;;;;;;;;;;0.12;100.00;100222.38;5040584;28;20202;-42
2021/12/09 05:03:14;;;;;;;;;;;;;;;0.11;100.00;100224.16;5037501;28;20448;-41
2021/12/09 05:05:42;;;;;;;;;;;;;;;0.10;100.00;100216.41;5036883;28;20201;-45
2021/12/09 05:08:09;;;;;;;;;;;;;;;0.10;100.00;100221.66;5038182;28;19909;-43
2021/12/09 05:10:48;;;;;;;;;;;;;;;0.10;100.00;100225.13;5035314;28;19916;-43
2021/12/09 05:13:14;;;;;;;;;;;;;;;0.11;100.00;100225.97;5037950;28;19951;-42
2021/12/09 05:15:39;;;;;;;;;;;;;;;0.09;100.00;100231.31;5037603;28;20383;-44
2021/12/09 05:18:04;;;;;;;;;;;;;;;0.08;100.00;100240.13;5036703;28;19939;-45
2021/12/09 05:20:29;;;;;;;;;;;;;;;0.08;100.00;100242.75;5037171;28;20367;-41
2021/12/09 05:22:54;;;;;;;;;;;;;;;0.08;100.00;100247.16;5036838;28;19912;-42
2021/12/09 05:25:19;;;;;;;;;;;;;;;0.07;100.00;100242.84;5037360;28;19923;-43
2021/12/09 05:27:45;;;;;;;;;;;;;;;0.05;100.00;100236.88;5056787;28;20585;-44
2021/12/09 05:30:12;;;;;;;;;;;;;;;0.07;100.00;100240.22;5057275;28;19908;-44
2021/12/09 05:32:38;;;;;;;;;;;;;;;0.06;100.00;100238.56;5056010;28;19912;-42
2021/12/09 05:35:03;;;;;;;;;;;;;;;0.05;100.00;100237.75;5056369;28;19915;-42
2021/12/09 05:37:28;;;;;;;;;;;;;;;0.04;100.00;100236.06;5057348;28;19995;-43
2021/12/09 05:39:55;;;;;;;;;;;;;;;0.05;100.00;100237.75;5057435;28;20439;-46
2021/12/09 05:42:21;;;;;;;;;;;;;;;0.06;100.00;100249.91;5056595;28;20018;-44
2021/12/09 05:44:47;;;;;;;;;;;;;;;0.05;100.00;100253.50;5057051;28;19909;-45
2021/12/09 05:47:12;;;;;;;;;;;;;;;0.10;100.00;100255.78;5056720;28;19912;-46
2021/12/09 05:49:39;;;;;;;;;;;;;;;0.09;100.00;100257.56;5044127;28;20027;-42
2021/12/09 05:52:05;;;;;;;;;;;;;;;0.10;100.00;100258.41;5064967;28;19915;-44
2021/12/09 05:54:31;;;;;;;;;;;;;;;0.13;100.00;100259.03;5077039;28;19936;-45
2021/12/09 05:56:56;;;;;;;;;;;;;;;0.13;100.00;100260.81;5076507;28;19958;-43
2021/12/09 05:59:21;;;;;;;;;;;;;;;0.13;100.00;100256.41;5071745;28;19989;-44
2021/12/09 06:01:47;;;;;;;;;;;;;;;0.14;100.00;100255.47;5056106;28;19908;-45
2021/12/09 06:04:12;;;;;;;;;;;;;;;0.15;100.00;100261.53;5056278;28;19939;-44
2021/12/09 06:06:38;;;;;;;;;;;;;;;0.13;100.00;100252.94;5054241;28;20097;-41
2021/12/09 06:09:05;;;;;;;;;;;;;;;0.14;100.00;100255.47;5052914;28;19970;-45
2021/12/09 06:11:31;;;;;;;;;;;;;;;0.14;100.00;100255.47;5056744;28;19912;-43
2021/12/09 06:13:56;;;;;;;;;;;;;;;0.08;100.00;100258.50;5052467;28;19919;-40
2021/12/09 06:16:22;;;;;;;;;;;;;;;0.05;100.00;100250.00;5057696;28;19912;-43
2021/12/09 06:18:47;;;;;;;;;;;;;;;0.04;100.00;100257.06;5054305;28;20024;-42
2021/12/09 06:21:12;;;;;;;;;;;;;;;0.02;100.00;100251.09;5046290;28;19966;-42
2021/12/09 06:23:37;;;;;;;;;;;;;;;0.03;100.00;100259.78;5040821;28;20272;-45
2021/12/09 06:26:05;;;;;;;;;;;;;;;0.02;100.00;100265.97;5037892;28;19927;-43
2021/12/09 06:28:30;;;;;;;;;;;;;;;-0.01;100.00;100252.13;5038426;28;19958;-42
2021/12/09 06:30:55;;;;;;;;;;;;;;;-0.02;100.00;100252.22;5037450;28;20350;-42
2021/12/09 06:33:20;;;;;;;;;;;;;;;-0.03;100.00;100255.81;5039632;28;19912;-43
2021/12/09 06:35:46;;;;;;;;;;;;;;;-0.02;100.00;100252.22;5058617;28;19934;-42
2021/12/09 06:38:15;;;;;;;;;;;;;;;-0.02;100.00;100253.09;5055697;28;19908;-43
2021/12/09 06:40:40;;;;;;;;;;;;;;;0.03;100.00;100265.03;5046179;28;19939;-42
2021/12/09 06:43:05;;;;;;;;;;;;;;;0.05;100.00;100266.63;5065034;28;19916;-42
2021/12/09 06:45:31;;;;;;;;;;;;;;;0.04;100.00;100270.19;5054001;28;19923;-40
2021/12/09 06:47:56;;;;;;;;;;;;;;;0.03;100.00;100276.38;5044270;28;19952;-42
2021/12/09 06:50:22;;;;;;;;;;;;;;;0.02;100.00;100277.34;5043847;28;20238;-42
2021/12/09 06:52:48;;;;;;;;;;;;;;;-0.01;100.00;100273.13;5036034;28;19965;-43
2021/12/09 06:55:14;;;;;;;;;;;;;;;0.02;100.00;100274.72;5037529;28;19935;-42
2021/12/09 06:57:42;;;;;;;;;;;;;;;0.03;100.00;100272.91;5043528;28;19924;-43
2021/12/09 07:00:08;;;;;;;;;;;;;;;0.01;100.00;100273.03;5047802;28;19958;-43
2021/12/09 07:02:34;;;;;;;;;;;;;;;0.04;100.00;100274.59;5053751;28;19919;-41
2021/12/09 07:04:59;;;;;;;;;;;;;;;0.04;100.00;100269.34;5048573;28;20300;-43
2021/12/09 07:07:24;;;;;;;;;;;;;;;0.03;100.00;100280.78;5053584;28;20399;-41
2021/12/09 07:09:49;;;;;;;;;;;;;;;0.05;100.00;100286.75;5052169;28;19966;-42
2021/12/09 07:12:14;;;;;;;;;;;;;;;0.02;100.00;100281.72;5052627;28;19935;-45
2021/12/09 07:14:42;;;;;;;;;;;;;;;-0.01;100.00;100277.53;5054185;28;20331;-46
2021/12/09 07:17:07;;;;;;;;;;;;;;;-0.04;100.00;100278.56;5050567;28;20414;-42
2021/12/09 07:19:32;;;;;;;;;;;;;;;-0.05;100.00;100276.91;5053291;28;19916;-42
2021/12/09 07:21:58;;;;;;;;;;;;;;;-0.03;100.00;100284.69;5054079;28;20015;-41
2021/12/09 07:24:23;;;;;;;;;;;;;;;-0.05;100.00;100274.28;5054138;28;19956;-44
2021/12/09 07:26:48;;;;;;;;;;;;;;;-0.09;100.00;100285.94;5053383;28;20336;-46
2021/12/09 07:29:13;;;;;;;;;;;;;;;-0.07;100.00;100294.56;5053798;28;19913;-42
2021/12/09 07:31:38;;;;;;;;;;;;;;;-0.07;100.00;100289.31;5055321;28;20618;-41
2021/12/09 07:34:03;;;;;;;;;;;;;;;-0.07;100.00;100288.47;5054935;28;19912;-43
2021/12/09 07:36:29;;;;;;;;;;;;;;;-0.07;100.00;100291.09;5054664;28;19920;-44
2021/12/09 07:38:54;;;;;;;;;;;;;;;-0.11;100.00;100285.22;5055598;28;20433;-44
2021/12/09 07:41:21;;;;;;;;;;;;;;;-0.07;100.00;100298.97;5053552;28;19977;-42
2021/12/09 07:43:46;;;;;;;;;;;;;;;-0.07;100.00;100298.97;5055773;28;19927;-43
2021/12/09 07:46:12;;;;;;;;;;;;;;;-0.07;100.00;100293.72;5054515;28;20164;-43
2021/12/09 07:48:37;;;;;;;;;;;;;;;-0.07;100.00;100291.09;5055953;28;19916;-41
2021/12/09 07:51:02;;;;;;;;;;;;;;;-0.09;100.00;100291.19;5054005;28;19916;-42
2021/12/09 07:53:27;;;;;;;;;;;;;;;-0.10;100.00;100291.28;5036412;28;20007;-43
2021/12/09 07:55:53;;;;;;;;;;;;;;;-0.11;100.00;100289.63;5058653;28;20003;-42
2021/12/09 07:58:18;;;;;;;;;;;;;;;-0.13;100.00;100288.91;5058828;28;19901;-42
2021/12/09 08:00:44;;;;;;;;;;;;;;;-0.14;100.00;100290.66;5059271;28;19928;-44
2021/12/09 08:03:09;;;;;;;;;;;;;;;-0.12;100.00;100291.44;5058109;28;19912;-46
2021/12/09 08:05:37;;;;;;;;;;;;;;;-0.09;100.00;100295.59;5058195;28;19912;-41
2021/12/09 08:08:03;;;;;;;;;;;;;;;-0.03;100.00;100303.06;5058755;28;19908;-44
2021/12/09 08:10:28;;;;;;;;;;;;;;;0.00;100.00;100308.09;5059090;28;19909;-42
2021/12/09 08:12:53;;;;;;;;;;;;;;;0.06;100.00;100307.66;5058230;28;19912;-40
2021/12/09 08:15:18;;;;;;;;;;;;;;;0.10;100.00;100319.66;5057789;28;19958;-42
2021/12/09 08:17:46;;;;;;;;;;;;;;;0.12;100.00;100319.50;5058265;28;19919;-45
2021/12/09 08:20:16;;;;;;;;;;;;;;;0.21;100.00;100326.78;5038899;28;19948;-47
2021/12/09 08:22:42;;;;;;;;;;;;;;;0.34;100.00;100324.09;5059282;28;19912;-47
2021/12/09 08:25:07;;;;;;;;;;;;;;;0.44;100.00;100316.41;5058819;28;20329;-44
2021/12/09 08:27:33;;;;;;;;;;;;;;;0.52;100.00;100317.53;5040908;28;19948;-44
2021/12/09 08:30:01;;;;;;;;;;;;;;;0.62;100.00;100316.91;5039123;28;20369;-45
2021/12/09 08:32:26;;;;;;;;;;;;;;;0.67;100.00;100313.00;5037366;28;19946;-45
2021/12/09 08:34:53;;;;;;;;;;;;;;;0.71;100.00;100311.84;5038187;28;20015;-42
2021/12/09 08:37:18;;;;;;;;;;;;;;;0.75;100.00;100317.72;5038753;28;20502;-43
2021/12/09 08:39:44;;;;;;;;;;;;;;;0.81;100.00;100311.16;5041100;28;20640;-42
2021/12/09 08:42:09;;;;;;;;;;;;;;;0.87;100.00;100322.06;5038206;28;20259;-43
2021/12/09 08:44:34;;;;;;;;;;;;;;;0.96;100.00;100320.56;5038245;28;20392;-43
2021/12/09 08:46:59;;;;;;;;;;;;;;;0.99;100.00;100316.88;5036898;28;20384;-45
2021/12/09 08:49:24;;;;;;;;;;;;;;;1.08;100.00;100324.91;5038615;28;20260;-42
2021/12/09 08:51:50;;;;;;;;;;;;;;;1.14;100.00;100334.16;5037507;28;20008;-43
2021/12/09 08:54:15;;;;;;;;;;;;;;;1.17;100.00;100319.91;5038220;28;20148;-42
2021/12/09 08:56:40;;;;;;;;;;;;;;;1.20;100.00;100333.69;5038718;28;19912;-43
2021/12/09 08:59:06;;;;;;;;;;;;;;;1.23;100.00;100322.94;5034975;28;19913;-44
2021/12/09 09:01:32;;;;;;;;;;;;;;;1.26;100.00;100324.50;5037573;28;19966;-43
2021/12/09 09:03:58;;;;;;;;;;;;;;;1.31;100.00;100327.66;5038148;28;20353;-43
2021/12/09 09:06:23;;;;;;;;;;;;;;;1.35;100.00;100329.06;5036946;28;19915;-45
2021/12/09 09:08:51;;;;;;;;;;;;;;;1.38;100.00;100323.59;5038743;28;20477;-44
2021/12/09 09:11:16;;;;;;;;;;;;;;;1.44;100.00;100335.44;5036931;28;19913;-47
2021/12/09 09:13:42;;;;;;;;;;;;;;;1.47;100.00;100335.22;5037542;28;19920;-43
2021/12/09 09:16:07;;;;;;;;;;;;;;;1.52;100.00;100329.63;5036969;28;19915;-43
2021/12/09 09:18:32;;;;;;;;;;;;;;;1.56;100.00;100329.28;5048015;28;19912;-45
2021/12/09 09:20:58;;;;;;;;;;;;;;;1.61;100.00;100340.28;5056635;28;19952;-45
2021/12/09 09:23:23;;;;;;;;;;;;;;;1.69;100.00;100334.44;5056922;28;19901;-44
2021/12/09 09:25:48;;;;;;;;;;;;;;;1.71;100.00;100336.97;5056642;28;19955;-46
2021/12/09 09:28:14;;;;;;;;;;;;;;;1.73;100.00;100332.41;5057636;28;19916;-47
2021/12/09 09:30:43;;;;;;;;;;;;;;;1.75;100.00;100331.34;5056857;28;20036;-45
2021/12/09 09:33:13;;;;;;;;;;;;;;;1.78;100.00;100339.03;5056799;28;20392;-45
2021/12/09 09:35:39;;;;;;;;;;;;;;;1.80;100.00;100339.72;5057002;28;19919;-45
2021/12/09 09:38:05;;;;;;;;;;;;;;;1.81;100.00;100345.81;5056032;28;19908;-45
2021/12/09 09:40:38;;;;;;;;;;;;;;;1.84;100.00;100338.53;5057714;28;20309;-46
2021/12/09 09:43:13;;;;;;;;;;;;;;;1.86;100.00;100331.34;5057128;28;20003;-42
2021/12/09 09:45:39;;;;;;;;;;;;;;;1.88;100.00;100344.41;5057111;28;19908;-43
2021/12/09 09:48:07;;;;;;;;;;;;;;;1.92;100.00;100345.84;5054927;28;19922;-44
2021/12/09 09:50:32;;;;;;;;;;;;;;;1.96;100.00;100347.28;5056822;28;20355;-48
2021/12/09 09:52:57;;;;;;;;;;;;;;;2.01;100.00;100354.84;5057229;28;20089;-46
2021/12/09 09:55:23;;;;;;;;;;;;;;;2.07;100.00;100351.75;5057170;28;19908;-44
2021/12/09 09:57:49;;;;;;;;;;;;;;;2.10;100.00;100348.84;5056794;28;19934;-47
2021/12/09 10:00:15;;;;;;;;;;;;;;;2.11;100.00;100353.19;5042936;28;20207;-43
2021/12/09 10:02:41;;;;;;;;;;;;;;;2.13;100.00;100355.69;5036585;28;20094;-45
2021/12/09 10:05:08;;;;;;;;;;;;;;;2.16;100.00;100364.19;5035759;28;19916;-45
2021/12/09 10:07:34;;;;;;;;;;;;;;;2.18;100.00;100354.38;5036448;28;19908;-44
2021/12/09 10:10:00;;;;;;;;;;;;;;;2.23;100.00;100360.13;5036972;28;19958;-44
2021/12/09 10:12:25;;;;;;;;;;;;;;;2.26;100.00;100356.41;5035381;28;19909;-44
2021/12/09 10:14:52;;;;;;;;;;;;;;;2.28;100.00;100351.03;5036553;28;19999;-44
2021/12/09 10:17:18;;;;;;;;;;;;;;;2.31;100.00;100348.13;5034702;28;20261;-44
2021/12/09 10:19:46;;;;;;;;;;;;;;;2.34;100.00;100343.50;5053261;28;19923;-43
2021/12/09 10:22:16;;;;;;;;;;;;;;;2.39;100.00;100343.09;5056231;28;20264;-45
2021/12/09 10:24:43;;;;;;;;;;;;;;;2.41;100.00;100342.03;5055883;28;19981;-42
2021/12/09 10:27:13;;;;;;;;;;;;;;;2.45;100.00;100334.72;5041286;28;19908;-44
2021/12/09 10:29:43;;;;;;;;;;;;;;;2.49;100.00;100327.41;5035626;28;20516;-43
2021/12/09 10:32:12;;;;;;;;;;;;;;;2.54;100.00;100323.44;5035452;28;20315;-44
2021/12/09 10:34:42;;;;;;;;;;;;;;;2.62;100.00;100312.31;5034951;28;19919;-44
2021/12/09 10:37:09;;;;;;;;;;;;;;;2.60;100.00;100324.78;5035760;28;20071;-42
2021/12/09 10:39:53;;;;;;;;;;;;;;;2.60;100.00;100322.13;5035923;28;20327;-45
2021/12/09 10:42:18;;;;;;;;;;;;;;;2.62;100.00;100325.47;5034456;28;19917;-42
2021/12/09 10:44:48;;;;;;;;;;;;;;;2.63;100.00;100327.16;5036501;28;20295;-42
2021/12/09 10:47:36;;;;;;;;;;;;;;;2.71;100.00;100323.91;5035823;28;19908;-42
2021/12/09 10:50:07;;;;;;;;;;;;;;;2.84;100.00;100327.22;5034690;28;20333;-40
2021/12/09 10:52:39;;;;;;;;;;;;;;;2.86;100.00;100330.56;5035934;28;20878;-42
2021/12/09 10:55:06;;;;;;;;;;;;;;;2.85;100.00;100334.19;5035671;28;21034;-43
2021/12/09 10:57:32;;;;;;;;;;;;;;;2.89;100.00;100338.25;5035969;28;19909;-42
2021/12/09 10:59:58;;;;;;;;;;;;;;;2.93;100.00;100339.66;5035066;28;20061;-42
2021/12/09 11:02:24;;;;;;;;;;;;;;;2.90;100.00;100334.66;5034434;28;20449;-43
2021/12/09 11:05:04;;;;;;;;;;;;;;;2.95;100.00;100343.03;5035039;28;20436;-43
2021/12/09 11:07:31;;;;;;;;;;;;;;;2.97;100.00;100338.47;5036291;28;19913;-44
2021/12/09 11:10:16;;;;;;;;;;;;;;;3.01;100.00;100333.78;5035869;28;20328;-41
2021/12/09 11:12:47;;;;;;;;;;;;;;;3.04;100.00;100336.16;5035974;28;19908;-42
2021/12/09 11:15:12;;;;;;;;;;;;;;;3.05;100.00;100329.09;5035059;28;19909;-42
2021/12/09 11:17:41;;;;;;;;;;;;;;;3.06;100.00;100320.22;5034887;28;19970;-43
2021/12/09 11:20:07;;;;;;;;;;;;;;;3.13;100.00;100319.56;5033689;28;20287;-43
2021/12/09 11:22:36;;;;;;;;;;;;;;;3.20;100.00;100322.53;5036184;28;19930;-47
2021/12/09 11:25:04;;;;;;;;;;;;;;;3.23;100.00;100305.63;5035233;28;19921;-42
2021/12/09 11:27:30;;;;;;;;;;;;;;;3.29;100.00;100313.03;5052284;28;19946;-44
2021/12/09 11:30:07;;;;;;;;;;;;;;;3.33;100.00;100307.38;5058273;28;20356;-42
2021/12/09 11:32:55;;;;;;;;;;;;;;;3.36;100.00;100307.13;5059287;28;19947;-43
2021/12/09 11:35:25;;;;;;;;;;;;;;;3.35;100.00;100308.06;5057676;28;19915;-44
2021/12/09 11:40:20;;;;;;;;;;;;;;;3.40;100.00;100315.63;5059180;28;19923;-47
2021/12/09 11:42:52;;;;;;;;;;;;;;;3.41;100.00;100308.53;5059325;28;20132;-42
2021/12/09 11:45:21;;;;;;;;;;;;;;;3.45;100.00;100294.97;5058798;28;19909;-42
2021/12/09 11:47:48;;;;;;;;;;;;;;;3.49;100.00;100299.00;5057864;28;19942;-45
2021/12/09 11:50:16;;;;;;;;;;;;;;;3.55;100.00;100305.59;5058445;28;20124;-44
2021/12/09 11:52:43;;;;;;;;;;;;;;;3.62;100.00;100304.09;5059756;28;20167;-43
2021/12/09 11:55:10;;;;;;;;;;;;;;;3.65;100.00;100303.84;5058777;28;19912;-44
2021/12/09 12:11:17;;;;;;;;;;;;;;;4.07;100.00;100293.22;5039464;28;19909;-43
2021/12/09 12:13:54;;;;;;;;;;;;;;;4.01;100.00;100284.97;5039862;28;19986;-43
2021/12/09 12:16:53;;;;;;;;;;;;;;;3.85;100.00;100288.94;5037765;28;19974;-72
2021/12/09 12:19:40;;;;;;;;;;;;;;;3.82;100.00;100286.56;5038879;28;20323;-44
2021/12/09 12:22:43;;;;;;;;;;;;;;;3.81;100.00;100282.22;5038329;28;19919;-44
2021/12/09 12:25:26;;;;;;;;;;;;;;;3.77;100.00;100280.84;5038338;28;19936;-44
2021/12/09 12:28:07;;;;;;;;;;;;;;;3.73;100.00;100274.13;5037730;28;20357;-44
2021/12/09 12:31:03;;;;;;;;;;;;;;;3.71;100.00;100268.16;5037439;28;19905;-43
2021/12/09 12:33:53;;;;;;;;;;;;;;;3.66;100.00;100265.88;5038243;28;20082;-44
2021/12/09 12:36:42;;;;;;;;;;;;;;;3.64;100.00;100267.84;5055002;28;19905;-46
2021/12/09 12:39:16;;;;;;;;;;;;;;;3.64;100.00;100275.75;5057521;28;20404;-47
2021/12/09 12:45:19;;;;;;;;;;;;;;;3.67;100.00;100278.13;5035397;28;20046;-43
2021/12/09 12:47:53;;;;;;;;;;;;;;;3.68;100.00;100273.69;5059106;28;19909;-44
2021/12/09 12:50:21;;;;;;;;;;;;;;;3.66;100.00;100280.91;5056310;28;19962;-44
2021/12/09 12:52:46;;;;;;;;;;;;;;;3.67;100.00;100279.94;5058606;28;20504;-43
2021/12/09 12:55:13;;;;;;;;;;;;;;;3.71;100.00;100282.19;5058625;28;19955;-42